Impacts TAF Board
For situational awareness. Not to be used for flight planning purposes.
IDs:

KBWI - Baltimore-Washington, MD, US

Issued at 2341 UTC 15 Oct 2018
Updated at 0246 UTC 16 Oct 2018
Potential Impact None Slight Moderate High
Time<<16/15Z 16/16Z 16/17Z 16/18Z 16/19Z 16/20Z 16/21Z 16/22Z 16/23Z 17/00Z 17/01Z 17/02Z 17/03Z>>
Type PRVL PRVL PRVL PRVL PRVL PRVL PRVL PRVL PRVL PRVL PRVL PRVL PRVL
VIS >6 >6 >6 >6 >6 >6 >6 >6 >6 >6 >6 >6 >6
CIG -- -- -- -- -- -- -- -- -- -- -- -- --
Cover SCT SCT SCT SCT SCT SCT SCT SCT SCT SCT SCT SCT SCT
FltCat VFR VFR VFR VFR VFR VFR VFR VFR VFR VFR VFR VFR VFR
WX -- -- -- -- -- -- -- -- -- -- -- -- --
WDir 320 320 320 320 320 320 320 250 250 250 250 190 190
WSpd 8 8 8 8 8 8 8 5 5 5 5 4 4
WGst 16 16 -- -- -- -- -- -- -- -- -- -- --
Raw TAF
KBWI 152341Z 1600/1706 26005KT P6SM VCSH BKN050 OVC100
  FM160400 32015G25KT P6SM SCT050 BKN100
  FM161100 32008G16KT P6SM SCT100
  FM161700 32008KT P6SM SCT100
  FM162200 25005KT P6SM SCT100
  FM170200 19004KT P6SM SCT100


METAR Board
Radar Display
Forecast Discussion
For situational awareness. Not to be used for flight planning purposes.